Time;durP1;ratioP1;P1;durP2;ratioP2;P2;SDS_P1;SDS_P2;PMS_P1;PMS_P2;Temp;Humidity;BMP_temperature;BMP_pressure;BME280_temperature;BME280_humidity;BME280_pressure;Samples;Min_cycle;Max_cycle;Signal;HPM_P1;HPM_P2
2023/11/05 10:42:53;;;;;;;34.67;5.93;;;22.10;77.30;;;;;;6148247;23;20101;-87
2023/11/05 10:45:21;;;;;;;24.52;5.82;;;22.20;76.00;;;;;;6155217;23;20014;-78
2023/11/05 10:47:47;;;;;;;29.30;5.93;;;22.20;75.30;;;;;;6128994;23;20344;-82
2023/11/05 10:50:19;;;;;;;27.23;5.88;;;22.20;74.40;;;;;;6156110;23;20005;-87
2023/11/05 10:52:47;;;;;;;28.27;5.50;;;22.20;74.00;;;;;;6154925;23;20090;-84
2023/11/05 10:55:13;;;;;;;32.33;9.15;;;22.00;72.90;;;;;;6154211;23;20041;-80
2023/11/05 10:57:43;;;;;;;25.13;6.05;;;22.00;73.00;;;;;;6154464;23;20016;-80
2023/11/05 11:00:29;;;;;;;27.77;5.88;;;22.00;73.20;;;;;;6155020;23;20005;-78
2023/11/05 11:02:56;;;;;;;28.23;6.00;;;22.00;72.40;;;;;;6080485;23;20037;-79
2023/11/05 11:05:42;;;;;;;27.88;6.55;;;22.00;72.00;;;;;;6154127;23;20002;-81
2023/11/05 11:08:17;;;;;;;28.30;6.20;;;22.10;72.00;;;;;;6129675;23;20017;-82
2023/11/05 11:10:49;;;;;;;33.63;6.90;;;22.10;72.20;;;;;;6144654;23;20005;-77
2023/11/05 11:13:19;;;;;;;30.88;6.97;;;22.20;72.20;;;;;;6147819;23;20052;-84
2023/11/05 11:15:52;;;;;;;32.33;6.60;;;22.20;72.20;;;;;;6154390;23;20316;-80
2023/11/05 11:18:19;;;;;;;21.13;6.37;;;22.10;71.80;;;;;;6154524;23;20020;-80
2023/11/05 11:20:52;;;;;;;27.80;6.25;;;22.00;72.50;;;;;;6154732;23;20316;-78
2023/11/05 11:23:18;;;;;;;32.80;6.93;;;22.00;71.90;;;;;;6155170;23;20201;-81
2023/11/05 11:26:24;;;;;;;30.67;6.00;;;21.90;72.30;;;;;;6154724;23;20009;-79
2023/11/05 11:29:00;;;;;;;31.00;6.18;;;21.90;72.80;;;;;;6153775;23;20001;-82
2023/11/05 11:31:27;;;;;;;30.70;5.68;;;21.80;72.40;;;;;;6154274;23;20440;-80
2023/11/05 11:33:54;;;;;;;26.77;5.70;;;21.70;72.90;;;;;;6129792;23;20021;-85
2023/11/05 11:36:20;;;;;;;27.83;5.10;;;21.70;72.30;;;;;;6154525;23;20005;-82
2023/11/05 11:38:46;;;;;;;26.23;5.45;;;21.60;71.60;;;;;;6154127;23;20145;-81
2023/11/05 11:41:12;;;;;;;32.13;6.45;;;21.50;70.80;;;;;;6154143;23;20013;-79
2023/11/05 11:43:38;;;;;;;35.72;6.82;;;21.40;70.40;;;;;;6153927;23;20045;-77
2023/11/05 11:46:04;;;;;;;31.13;7.15;;;21.40;70.70;;;;;;6154648;23;20004;-78
2023/11/05 11:48:30;;;;;;;30.58;8.10;;;21.30;70.40;;;;;;6154349;23;20080;-80
2023/11/05 11:51:02;;;;;;;27.88;6.60;;;21.40;69.90;;;;;;6154815;23;20021;-84
2023/11/05 11:53:30;;;;;;;26.70;5.93;;;21.60;69.60;;;;;;6154055;23;20009;-75
2023/11/05 11:55:57;;;;;;;24.45;5.75;;;21.70;69.00;;;;;;6153830;23;20001;-79
2023/11/05 11:58:24;;;;;;;25.48;5.35;;;21.70;68.40;;;;;;6154533;23;20009;-79
2023/11/05 12:00:54;;;;;;;22.00;5.20;;;21.80;68.30;;;;;;6154127;23;20025;-80
2023/11/05 12:03:21;;;;;;;27.45;5.75;;;21.90;68.10;;;;;;6156082;23;20300;-80
2023/11/05 12:05:47;;;;;;;27.45;5.75;;;22.00;67.60;;;;;;6154067;23;20380;-79
2023/11/05 12:08:13;;;;;;;28.50;5.93;;;22.00;67.20;;;;;;6153996;23;20009;-81
2023/11/05 12:10:42;;;;;;;31.48;5.32;;;22.10;67.00;;;;;;6154161;23;20005;-76
2023/11/05 12:13:08;;;;;;;25.77;6.10;;;22.10;67.20;;;;;;6154048;23;20008;-82
2023/11/05 12:15:37;;;;;;;29.35;6.03;;;22.10;67.00;;;;;;6154007;23;20336;-84
2023/11/05 12:18:03;;;;;;;25.88;6.03;;;22.10;67.20;;;;;;6154143;23;20106;-80
2023/11/05 12:20:30;;;;;;;26.40;5.68;;;22.10;66.70;;;;;;6155721;23;20001;-84
2023/11/05 12:22:56;;;;;;;32.58;7.45;;;22.10;67.00;;;;;;6155435;23;20010;-82
2023/11/05 12:25:22;;;;;;;30.42;6.47;;;22.00;67.20;;;;;;6155785;23;20008;-80
2023/11/05 12:27:50;;;;;;;26.92;6.45;;;22.10;67.20;;;;;;6155979;23;20006;-80
2023/11/05 12:30:25;;;;;;;31.63;6.38;;;22.10;67.40;;;;;;6155639;23;20001;-81
2023/11/05 12:32:52;;;;;;;32.70;7.18;;;22.20;67.50;;;;;;6155751;23;20465;-80
2023/11/05 12:35:18;;;;;;;29.60;6.63;;;22.40;67.60;;;;;;6155013;23;20008;-80
2023/11/05 12:37:44;;;;;;;32.63;6.38;;;22.40;67.30;;;;;;6155841;23;20050;-79
2023/11/05 12:40:11;;;;;;;27.63;6.60;;;22.40;67.10;;;;;;6156239;23;20010;-75
2023/11/05 12:42:37;;;;;;;40.75;10.48;;;22.30;67.50;;;;;;6156059;23;20009;-74
2023/11/05 12:45:04;;;;;;;29.95;7.35;;;22.30;67.70;;;;;;6156425;23;20404;-79
2023/11/05 12:47:30;;;;;;;27.70;6.18;;;22.20;68.30;;;;;;6155653;23;20076;-75
2023/11/05 12:49:56;;;;;;;31.90;6.25;;;22.20;68.20;;;;;;6155428;23;20436;-77
2023/11/05 12:52:23;;;;;;;27.95;7.03;;;22.00;68.30;;;;;;6155876;23;20196;-78
2023/11/05 12:54:49;;;;;;;25.17;6.30;;;21.90;68.30;;;;;;6156143;23;20002;-76
2023/11/05 12:57:15;;;;;;;33.08;6.82;;;21.80;68.50;;;;;;6155488;23;20086;-79
2023/11/05 12:59:41;;;;;;;32.30;6.90;;;21.90;68.90;;;;;;6156162;23;20006;-82
2023/11/05 13:02:08;;;;;;;26.85;6.38;;;21.90;68.70;;;;;;6156520;23;20049;-81
2023/11/05 13:04:34;;;;;;;31.05;6.50;;;21.90;68.70;;;;;;6155540;23;20014;-80
2023/11/05 13:07:04;;;;;;;30.70;6.43;;;22.00;68.80;;;;;;6156332;23;20018;-81
2023/11/05 13:09:29;;;;;;;30.23;6.70;;;22.10;68.60;;;;;;6155959;23;20372;-79
2023/11/05 13:11:56;;;;;;;38.92;7.85;;;22.20;68.60;;;;;;6155867;23;20052;-80
2023/11/05 13:14:22;;;;;;;32.20;7.47;;;22.10;68.80;;;;;;6156115;23;20080;-80
2023/11/05 13:16:48;;;;;;;35.63;7.75;;;22.10;69.10;;;;;;6155981;23;20018;-80
2023/11/05 13:19:14;;;;;;;38.83;7.22;;;22.10;69.20;;;;;;6155649;23;20008;-80
2023/11/05 13:21:40;;;;;;;35.35;7.57;;;22.10;69.20;;;;;;6155486;23;20006;-78
2023/11/05 13:24:06;;;;;;;29.63;6.47;;;22.10;69.40;;;;;;6156046;23;20005;-82
2023/11/05 13:26:32;;;;;;;31.00;7.40;;;22.10;69.80;;;;;;6155981;23;20001;-76
2023/11/05 13:28:58;;;;;;;29.95;6.40;;;22.00;69.30;;;;;;6155598;23;20002;-83
2023/11/05 13:31:26;;;;;;;29.85;7.40;;;22.00;69.60;;;;;;6130239;23;20002;-87
2023/11/05 13:33:52;;;;;;;32.90;7.00;;;22.00;69.50;;;;;;6155837;23;20017;-81
2023/11/05 13:36:19;;;;;;;28.67;6.72;;;22.00;69.40;;;;;;6153990;23;20230;-83
2023/11/05 13:38:45;;;;;;;35.05;7.40;;;22.00;70.00;;;;;;6157523;23;20005;-89
2023/11/05 13:41:12;;;;;;;32.45;6.70;;;22.00;69.40;;;;;;6155785;23;20001;-76
2023/11/05 13:43:38;;;;;;;32.45;6.60;;;21.90;71.40;;;;;;6155671;23;20322;-85
2023/11/05 13:46:05;;;;;;;34.13;6.53;;;21.90;70.70;;;;;;6155619;23;20009;-84
2023/11/05 13:48:31;;;;;;;32.28;6.53;;;21.90;70.30;;;;;;6155664;23;20005;-84
2023/11/05 13:50:56;;;;;;;32.75;7.63;;;21.90;69.30;;;;;;6155961;23;20009;-84
2023/11/05 13:53:24;;;;;;;27.65;6.68;;;21.90;69.50;;;;;;6155801;23;20006;-83
2023/11/05 13:55:50;;;;;;;26.50;6.47;;;21.90;69.70;;;;;;6156299;23;20005;-84
2023/11/05 13:58:19;;;;;;;27.73;6.82;;;21.90;69.50;;;;;;6158408;23;20005;-84
2023/11/05 14:00:48;;;;;;;25.05;6.00;;;21.90;69.30;;;;;;6158916;23;20002;-83
2023/11/05 14:03:14;;;;;;;31.02;6.22;;;21.90;69.40;;;;;;6155176;23;20061;-84
2023/11/05 14:05:40;;;;;;;36.10;6.43;;;21.90;69.50;;;;;;6156319;23;20014;-85
2023/11/05 14:08:10;;;;;;;35.22;6.97;;;21.80;70.70;;;;;;6159824;23;20024;-83
2023/11/05 14:10:36;;;;;;;30.92;7.15;;;21.90;69.80;;;;;;6135398;23;20009;-84
2023/11/05 14:13:02;;;;;;;31.35;6.80;;;21.90;71.80;;;;;;6159391;23;20381;-84
2023/11/05 14:15:28;;;;;;;32.05;7.13;;;21.90;70.90;;;;;;6157116;23;20001;-85
2023/11/05 14:17:54;;;;;;;32.33;6.65;;;21.90;69.50;;;;;;6156714;23;20036;-83
2023/11/05 14:20:20;;;;;;;34.03;7.85;;;22.00;69.60;;;;;;6155620;23;20009;-81
2023/11/05 14:22:46;;;;;;;30.45;6.72;;;22.00;69.70;;;;;;6155175;23;20005;-80
2023/11/05 14:25:12;;;;;;;33.92;6.35;;;22.00;70.70;;;;;;6155239;23;19998;-81
2023/11/05 14:27:38;;;;;;;31.65;6.72;;;21.90;69.60;;;;;;6155891;23;20094;-83
2023/11/05 14:30:05;;;;;;;30.15;6.20;;;22.00;69.50;;;;;;6154443;23;20005;-86
2023/11/05 14:32:31;;;;;;;30.80;6.57;;;21.90;69.60;;;;;;6156168;23;20440;-84
2023/11/05 14:34:57;;;;;;;36.13;7.30;;;21.90;69.90;;;;;;6156272;23;20040;-81
2023/11/05 14:37:23;;;;;;;33.03;6.28;;;21.90;70.10;;;;;;6156287;23;20444;-85
2023/11/05 14:39:48;;;;;;;29.70;6.82;;;21.80;70.00;;;;;;6156199;23;20048;-87
2023/11/05 14:42:14;;;;;;;33.53;7.03;;;21.70;70.20;;;;;;6158032;23;20425;-88
2023/11/05 14:44:41;;;;;;;27.55;6.03;;;21.60;70.10;;;;;;6155502;23;20049;-84
2023/11/05 14:47:08;;;;;;;25.55;6.50;;;21.50;70.10;;;;;;6156134;23;20451;-84
2023/11/05 14:49:36;;;;;;;24.80;6.00;;;21.40;70.50;;;;;;6155464;23;20020;-83
2023/11/05 14:52:02;;;;;;;29.20;6.63;;;21.40;70.90;;;;;;6128431;23;20013;-82
2023/11/05 14:54:30;;;;;;;32.53;7.47;;;21.40;70.70;;;;;;6156249;23;20012;-83
2023/11/05 14:56:56;;;;;;;23.88;5.80;;;21.30;71.50;;;;;;6158134;23;20390;-83
2023/11/05 14:59:22;;;;;;;34.63;6.80;;;21.20;71.70;;;;;;6155501;23;19997;-82
2023/11/05 15:01:47;;;;;;;30.83;6.38;;;21.20;71.80;;;;;;6154414;23;20002;-82
2023/11/05 15:04:14;;;;;;;27.98;6.22;;;21.10;71.70;;;;;;6154926;23;20484;-82
2023/11/05 15:06:39;;;;;;;35.38;7.25;;;21.10;73.20;;;;;;6153691;23;20005;-83
2023/11/05 15:09:06;;;;;;;29.38;6.25;;;21.10;73.50;;;;;;6156201;23;20283;-82
2023/11/05 15:11:32;;;;;;;30.83;6.82;;;21.10;74.50;;;;;;6155474;23;20084;-82
2023/11/05 15:14:00;;;;;;;27.50;6.70;;;21.00;73.70;;;;;;6130070;23;20038;-82
2023/11/05 15:16:27;;;;;;;38.80;6.90;;;20.90;73.90;;;;;;6155239;23;20001;-83
2023/11/05 15:18:53;;;;;;;38.78;6.88;;;20.80;72.10;;;;;;6155951;23;20069;-82
2023/11/05 15:21:21;;;;;;;31.00;6.88;;;20.80;72.50;;;;;;6155452;23;20001;-82
2023/11/05 15:23:47;;;;;;;34.08;6.25;;;20.70;72.60;;;;;;6154175;23;20029;-81
2023/11/05 15:26:23;;;;;;;34.60;7.63;;;20.60;72.80;;;;;;6155061;23;20002;-82
2023/11/05 15:28:49;;;;;;;24.40;5.75;;;20.60;73.10;;;;;;6155033;23;20012;-82
2023/11/05 15:31:16;;;;;;;36.70;6.68;;;20.60;73.20;;;;;;6130780;23;20025;-81
2023/11/05 15:33:42;;;;;;;29.13;6.47;;;20.50;73.60;;;;;;6156410;23;20012;-80
2023/11/05 15:36:11;;;;;;;39.40;8.13;;;20.40;73.60;;;;;;6155181;23;20133;-83
2023/11/05 15:38:37;;;;;;;33.65;6.70;;;20.40;73.90;;;;;;6155408;23;20006;-82
2023/11/05 15:41:06;;;;;;;29.98;6.25;;;20.40;74.10;;;;;;6157429;23;20008;-82
2023/11/05 15:43:34;;;;;;;40.40;8.10;;;20.30;74.30;;;;;;6160408;23;20027;-82
2023/11/05 15:46:00;;;;;;;40.95;7.00;;;20.30;74.50;;;;;;6128528;23;20057;-83
2023/11/05 15:48:25;;;;;;;34.28;6.95;;;20.20;74.50;;;;;;6154921;23;20009;-83
2023/11/05 15:50:54;;;;;;;36.45;7.43;;;20.10;74.70;;;;;;6155132;23;20001;-82
2023/11/05 15:53:20;;;;;;;33.95;6.50;;;20.10;74.90;;;;;;6154904;23;20451;-84
2023/11/05 15:55:45;;;;;;;27.90;6.45;;;20.10;75.30;;;;;;6155258;23;19998;-81
2023/11/05 15:58:11;;;;;;;36.47;7.05;;;20.00;75.60;;;;;;6130064;23;20013;-84
2023/11/05 16:00:37;;;;;;;33.33;8.38;;;20.00;75.70;;;;;;6156445;23;20009;-82
2023/11/05 16:03:02;;;;;;;33.40;6.47;;;19.90;76.00;;;;;;6155931;23;20002;-83
2023/11/05 16:05:28;;;;;;;30.30;6.80;;;19.90;76.20;;;;;;6155523;23;20004;-80
2023/11/05 16:07:54;;;;;;;32.55;6.50;;;19.90;76.30;;;;;;6155282;23;20022;-85
2023/11/05 16:10:20;;;;;;;37.05;7.78;;;19.80;76.40;;;;;;6155759;23;20328;-83
2023/11/05 16:12:46;;;;;;;38.90;7.20;;;19.80;76.70;;;;;;6156140;23;20001;-83
2023/11/05 16:15:12;;;;;;;32.88;7.05;;;19.70;76.80;;;;;;6165526;23;20021;-82
2023/11/05 16:17:39;;;;;;;35.00;7.47;;;19.70;76.90;;;;;;6172434;23;20088;-82
2023/11/05 16:20:06;;;;;;;27.63;6.00;;;19.70;77.30;;;;;;6163574;23;19998;-83
2023/11/05 16:22:33;;;;;;;34.33;7.70;;;19.60;77.30;;;;;;6155598;23;20005;-83
2023/11/05 16:24:59;;;;;;;34.85;7.50;;;19.60;77.20;;;;;;6154756;23;20071;-82
2023/11/05 16:27:28;;;;;;;34.97;7.63;;;19.50;77.40;;;;;;6155055;23;20005;-82
2023/11/05 16:29:54;;;;;;;43.92;8.02;;;19.50;78.20;;;;;;6126549;23;20335;-83
2023/11/05 16:32:20;;;;;;;32.25;7.22;;;19.50;78.10;;;;;;6154470;23;20001;-84
2023/11/05 16:34:49;;;;;;;39.20;7.60;;;19.50;78.30;;;;;;6154498;23;19994;-81
2023/11/05 16:37:15;;;;;;;35.85;6.50;;;19.40;78.20;;;;;;6154832;23;20019;-84
2023/11/05 16:39:41;;;;;;;33.08;6.75;;;19.40;78.40;;;;;;6154395;23;20025;-80
2023/11/05 16:42:07;;;;;;;35.63;7.05;;;19.40;78.50;;;;;;6153654;23;20097;-78
2023/11/05 16:44:33;;;;;;;29.50;7.22;;;19.30;78.50;;;;;;6153958;23;20029;-77
2023/11/05 16:46:59;;;;;;;32.67;7.57;;;19.30;78.70;;;;;;6153668;23;20004;-82
2023/11/05 16:49:26;;;;;;;31.77;6.30;;;19.30;78.80;;;;;;6154480;23;20064;-82
2023/11/05 16:51:53;;;;;;;31.98;6.22;;;19.20;78.90;;;;;;6153413;23;20009;-83
2023/11/05 16:54:21;;;;;;;26.13;6.13;;;19.20;79.00;;;;;;6154341;23;20416;-83
2023/11/05 16:56:49;;;;;;;37.92;7.40;;;19.20;79.00;;;;;;6154804;23;20076;-81
2023/11/05 16:59:16;;;;;;;40.25;7.47;;;19.20;79.00;;;;;;6153698;23;20017;-81
2023/11/05 17:01:42;;;;;;;33.63;7.50;;;19.20;79.00;;;;;;6154132;23;20021;-81
2023/11/05 17:04:08;;;;;;;34.25;6.95;;;19.10;79.10;;;;;;6155095;23;20451;-87
2023/11/05 17:06:38;;;;;;;25.10;6.15;;;19.10;79.20;;;;;;6153237;23;20009;-82
2023/11/05 17:09:05;;;;;;;27.25;6.63;;;19.10;79.30;;;;;;6138432;23;20002;-80
2023/11/05 17:11:31;;;;;;;33.15;7.60;;;19.10;79.40;;;;;;6155962;23;20440;-83
2023/11/05 17:13:58;;;;;;;38.88;7.93;;;19.10;79.40;;;;;;6156427;23;20009;-82
2023/11/05 17:16:27;;;;;;;35.78;7.28;;;19.10;79.40;;;;;;6160602;23;20428;-84
2023/11/05 17:18:53;;;;;;;26.23;6.82;;;19.10;79.30;;;;;;6149805;23;20461;-80
2023/11/05 17:21:21;;;;;;;34.20;7.55;;;19.10;79.50;;;;;;6156664;23;19997;-84
2023/11/05 17:23:49;;;;;;;33.35;6.78;;;19.00;79.40;;;;;;6156020;23;20093;-81
2023/11/05 17:26:15;;;;;;;35.05;9.02;;;19.00;79.60;;;;;;6156281;23;20076;-81
2023/11/05 17:28:41;;;;;;;27.52;8.13;;;19.10;79.90;;;;;;6149671;23;20081;-81
2023/11/05 17:31:07;;;;;;;28.42;8.07;;;19.00;79.80;;;;;;6156478;23;20367;-82
2023/11/05 17:33:34;;;;;;;31.08;9.48;;;19.00;80.00;;;;;;6156801;23;20084;-85
2023/11/05 17:36:00;;;;;;;38.28;10.55;;;19.00;80.10;;;;;;6157395;23;20097;-85
2023/11/05 17:38:26;;;;;;;29.00;7.32;;;19.00;80.10;;;;;;6155646;23;20014;-84
2023/11/05 17:40:51;;;;;;;30.35;7.47;;;19.10;80.50;;;;;;6172029;23;19997;-84
2023/11/05 17:43:18;;;;;;;33.83;8.27;;;19.10;80.50;;;;;;6160067;23;20025;-86
2023/11/05 17:45:43;;;;;;;29.55;7.75;;;19.10;80.60;;;;;;6157059;23;20002;-82
2023/11/05 17:48:09;;;;;;;35.90;9.32;;;19.00;80.50;;;;;;6152266;23;20011;-82
2023/11/05 17:50:36;;;;;;;30.98;8.07;;;18.90;80.40;;;;;;6160404;23;20100;-83
2023/11/05 17:53:01;;;;;;;30.30;8.07;;;18.90;80.60;;;;;;6156327;23;20002;-84
2023/11/05 17:55:27;;;;;;;31.48;7.50;;;18.80;80.70;;;;;;6156533;23;20025;-85
2023/11/05 17:57:53;;;;;;;31.77;8.10;;;18.80;80.60;;;;;;6127874;23;20101;-84
2023/11/05 18:00:19;;;;;;;30.10;8.10;;;18.80;80.90;;;;;;6154857;23;20005;-82
2023/11/05 18:02:45;;;;;;;29.17;7.43;;;18.70;80.80;;;;;;6156453;23;20006;-83
2023/11/05 18:05:10;;;;;;;33.47;7.47;;;18.70;81.00;;;;;;6155782;23;20028;-83
2023/11/05 18:07:36;;;;;;;30.55;7.43;;;18.70;81.00;;;;;;6127507;23;20010;-84
2023/11/05 18:10:04;;;;;;;28.05;6.40;;;18.70;81.10;;;;;;6152143;23;20459;-82
2023/11/05 18:12:31;;;;;;;28.02;6.45;;;18.70;80.70;;;;;;6154466;23;20017;-84
2023/11/05 18:14:56;;;;;;;26.08;6.40;;;18.60;80.70;;;;;;6129538;23;20407;-84
2023/11/05 18:17:22;;;;;;;29.80;6.63;;;18.60;80.50;;;;;;6155474;23;20010;-84
2023/11/05 18:19:48;;;;;;;21.25;5.18;;;18.60;80.50;;;;;;6152757;23;19997;-85
2023/11/05 18:22:14;;;;;;;22.67;5.15;;;18.50;80.30;;;;;;6156521;23;20052;-83
2023/11/05 18:24:40;;;;;;;29.10;6.32;;;18.50;80.40;;;;;;6156452;23;20020;-83
2023/11/05 18:27:06;;;;;;;26.48;5.47;;;18.50;80.30;;;;;;6156607;23;20005;-84
2023/11/05 18:29:31;;;;;;;27.92;6.07;;;18.50;80.30;;;;;;6151577;23;20309;-86
2023/11/05 18:31:57;;;;;;;23.13;5.78;;;18.50;80.10;;;;;;6156850;23;19998;-85
2023/11/05 18:34:23;;;;;;;19.38;4.80;;;18.50;80.00;;;;;;6157070;23;20010;-87
2023/11/05 18:36:51;;;;;;;19.88;4.50;;;18.40;79.90;;;;;;6131014;23;20109;-85
2023/11/05 18:39:17;;;;;;;26.02;6.00;;;18.50;79.80;;;;;;6152540;23;20009;-84
2023/11/05 18:41:44;;;;;;;24.90;5.35;;;18.40;79.60;;;;;;6159650;23;20002;-82
2023/11/05 18:44:10;;;;;;;29.13;5.40;;;18.30;79.50;;;;;;6132381;23;20025;-84
2023/11/05 18:46:36;;;;;;;23.95;5.88;;;18.30;79.50;;;;;;6159687;23;19997;-83
2023/11/05 18:49:02;;;;;;;23.35;5.45;;;18.30;79.70;;;;;;6162206;23;20009;-82
2023/11/05 18:51:28;;;;;;;20.33;5.05;;;18.30;79.50;;;;;;6176753;23;19998;-83
2023/11/05 18:53:54;;;;;;;29.73;4.88;;;18.40;79.40;;;;;;6180043;23;20005;-84
2023/11/05 18:56:20;;;;;;;19.92;5.95;;;18.30;79.10;;;;;;6167674;23;20017;-84
2023/11/05 18:58:46;;;;;;;20.35;5.03;;;18.30;79.00;;;;;;6153009;23;20010;-81
2023/11/05 19:01:12;;;;;;;27.75;6.00;;;18.30;78.80;;;;;;6155177;23;20040;-83
2023/11/05 19:03:37;;;;;;;23.30;5.03;;;18.30;78.70;;;;;;6157763;23;20361;-83
2023/11/05 19:06:04;;;;;;;26.40;4.97;;;18.30;78.80;;;;;;6156980;23;20001;-83
2023/11/05 19:08:30;;;;;;;25.15;5.47;;;18.30;78.60;;;;;;6149898;23;20427;-82
2023/11/05 19:11:00;;;;;;;20.27;4.95;;;18.30;78.60;;;;;;6155978;23;20189;-83
2023/11/05 19:13:26;;;;;;;20.73;5.10;;;18.30;78.50;;;;;;6156093;23;20002;-83
2023/11/05 19:15:53;;;;;;;17.60;4.53;;;18.30;78.10;;;;;;6155549;23;20006;-82
2023/11/05 19:18:21;;;;;;;25.92;5.38;;;18.20;77.90;;;;;;6150188;23;20052;-82
2023/11/05 19:20:49;;;;;;;16.98;4.40;;;18.30;78.00;;;;;;6154905;23;20001;-83
2023/11/05 19:23:15;;;;;;;20.55;4.43;;;18.20;77.80;;;;;;6156252;23;20021;-83
2023/11/05 19:25:41;;;;;;;20.55;4.63;;;18.20;77.80;;;;;;6155948;23;20391;-83
2023/11/05 19:28:10;;;;;;;19.27;4.80;;;18.20;77.60;;;;;;6149977;23;20076;-84
2023/11/05 19:30:37;;;;;;;21.88;4.78;;;18.20;77.50;;;;;;6153795;23;20060;-82
2023/11/05 19:33:04;;;;;;;22.30;4.55;;;18.30;77.60;;;;;;6155784;23;20392;-81
2023/11/05 19:35:30;;;;;;;25.30;4.70;;;18.20;77.30;;;;;;6156017;23;20300;-83
2023/11/05 19:37:56;;;;;;;17.95;4.15;;;18.20;77.10;;;;;;6154650;23;20017;-83
2023/11/05 19:40:21;;;;;;;15.32;3.80;;;18.20;77.00;;;;;;6157241;23;20390;-84
2023/11/05 19:42:47;;;;;;;19.17;4.18;;;18.10;76.90;;;;;;6155706;23;20464;-82
2023/11/05 19:45:13;;;;;;;20.10;4.18;;;18.20;77.00;;;;;;6156736;23;20057;-84
2023/11/05 19:47:39;;;;;;;16.95;4.45;;;18.10;77.00;;;;;;6154049;23;20013;-84
2023/11/05 19:50:05;;;;;;;20.95;4.65;;;18.10;76.80;;;;;;6151509;23;20328;-84
2023/11/05 19:52:30;;;;;;;26.35;6.28;;;18.20;77.00;;;;;;6156023;23;20002;-84
2023/11/05 19:54:56;;;;;;;21.67;5.60;;;18.20;76.70;;;;;;6156153;23;20013;-83
2023/11/05 19:57:23;;;;;;;17.88;4.65;;;18.20;76.40;;;;;;6154673;23;20041;-83
2023/11/05 19:59:48;;;;;;;22.95;4.22;;;18.20;76.40;;;;;;6149062;23;19997;-84
2023/11/05 20:02:15;;;;;;;19.48;4.70;;;18.20;76.40;;;;;;6155333;23;20011;-84
2023/11/05 20:04:46;;;;;;;18.27;5.30;;;18.30;76.40;;;;;;6156446;23;20016;-84
2023/11/05 20:07:12;;;;;;;24.33;4.93;;;18.30;76.10;;;;;;6130142;23;20041;-82
2023/11/05 20:09:39;;;;;;;19.48;3.90;;;18.20;76.20;;;;;;6147450;23;20380;-83
2023/11/05 20:12:07;;;;;;;21.55;4.72;;;18.30;76.10;;;;;;6129455;23;20067;-82
2023/11/05 20:14:34;;;;;;;17.65;4.78;;;18.20;76.20;;;;;;6155689;23;20008;-82
2023/11/05 20:17:00;;;;;;;15.15;4.60;;;18.20;76.40;;;;;;6155210;23;20336;-82
2023/11/05 20:19:26;;;;;;;19.77;4.18;;;18.20;76.40;;;;;;6148320;23;20013;-86
2023/11/05 20:21:57;;;;;;;18.73;4.53;;;18.20;76.50;;;;;;6155868;23;20066;-80
2023/11/05 20:24:24;;;;;;;22.92;5.15;;;18.20;77.40;;;;;;6155591;23;20045;-82
2023/11/05 20:26:50;;;;;;;18.40;4.80;;;18.20;76.80;;;;;;6155702;23;20040;-81
2023/11/05 20:29:17;;;;;;;17.95;4.93;;;18.20;76.70;;;;;;6146798;23;20008;-81
2023/11/05 20:31:43;;;;;;;21.10;5.03;;;18.20;76.80;;;;;;6155290;23;20049;-81
2023/11/05 20:34:10;;;;;;;25.58;5.18;;;18.10;76.40;;;;;;6155667;23;20390;-79
2023/11/05 20:36:39;;;;;;;23.40;4.38;;;18.10;76.60;;;;;;6155250;23;20340;-81
2023/11/05 20:39:05;;;;;;;22.52;5.32;;;18.10;76.70;;;;;;6148747;23;20014;-83
2023/11/05 20:41:31;;;;;;;19.85;4.95;;;18.10;76.70;;;;;;6157620;23;20258;-83
2023/11/05 20:43:57;;;;;;;16.08;4.63;;;18.00;76.60;;;;;;6157550;23;20368;-83
2023/11/05 20:46:23;;;;;;;20.95;5.45;;;18.00;76.80;;;;;;6157527;23;19998;-82
2023/11/05 20:48:49;;;;;;;19.55;4.63;;;18.10;76.70;;;;;;6149870;23;20006;-82
2023/11/05 20:51:21;;;;;;;15.93;3.88;;;18.00;76.60;;;;;;6157820;23;20379;-86
2023/11/05 20:53:48;;;;;;;22.15;7.47;;;18.00;76.90;;;;;;6157715;23;20029;-89
2023/11/05 20:56:14;;;;;;;26.30;6.60;;;18.00;76.50;;;;;;6131445;23;20060;-83
2023/11/05 20:58:43;;;;;;;18.10;4.32;;;18.00;76.50;;;;;;6122248;23;20010;-81
2023/11/05 21:01:12;;;;;;;17.73;4.03;;;18.00;76.30;;;;;;6158245;23;20424;-81
2023/11/05 21:03:38;;;;;;;17.70;4.20;;;18.00;76.10;;;;;;6157020;23;20001;-82
2023/11/05 21:06:04;;;;;;;20.05;4.28;;;18.10;76.10;;;;;;6157498;23;20075;-84
2023/11/05 21:08:31;;;;;;;19.50;4.10;;;18.00;76.10;;;;;;6149933;23;20343;-82
2023/11/05 21:10:56;;;;;;;22.48;3.70;;;18.00;76.00;;;;;;6159191;23;20017;-82
2023/11/05 21:13:23;;;;;;;17.58;3.97;;;18.00;76.30;;;;;;6160989;23;20002;-81
2023/11/05 21:15:49;;;;;;;20.15;4.88;;;18.00;76.10;;;;;;6156377;23;20002;-82
2023/11/05 21:18:15;;;;;;;28.10;9.15;;;18.00;76.10;;;;;;6151514;23;20024;-83
2023/11/05 21:20:41;;;;;;;27.58;7.60;;;18.10;76.30;;;;;;6154957;23;20076;-83
